Terminal Aerodrome Forecast
Issued by NWS

Home | Current Version | Previous Version | Text Only | Print | Product List | Glossary On
Versions: 1 2 3 4 5 6 7 8 9 10 11 12 13 14 15 16 17 18 19 20
135
FTUS43 KDLH 232157 AAA
TAFBRD
TAF AMD
KBRD 232157Z 2322/2418 31015G24KT P6SM OVC040
     FM240700 34017G27KT P6SM BKN030
     FM241200 34019G27KT P6SM SCT050
     FM241500 34020G29KT P6SM SCT200=

USA.gov is the U.S. government's official web portal to all federal, state and local government web resources and services.